• Join FlightAware (Why Join?)
  • Login
  • US Flag 
03:21AM EDT


 

Airport Tracker/Info


-or-


 

Live Flight TrackerFlight Track Log ✈ SWA1707 ✈ 06-Jun-2014 ✈ KATL - KSAT

Flight Track Log - Related Links

Times and Time Zones

All times are in EDT time to prevent confusion due to time zone crossing. See the SWA1707 flight status page for this flight to view local times or setup timezone preferences in your user account.

Time Position Orientation Groundspeed Altitude Reporting Facility
EDT Latitude Longitude Course Direction KTS MPH feet Rate Location/Type
02:53PM 33.6500 -84.4667 287° West 171 197 2,400  Level Atlanta TRACON
02:54PM 33.6667 -84.5333 287° West 214 246 4,100 2,280 Climbing Atlanta TRACON
02:55PM 33.6833 -84.6167 284° West 265 305 7,200 3,180 Climbing Atlanta TRACON
02:57PM 33.6917 -84.8228 273° West 287 330 15,100 3,000 Climbing Atlanta Center
02:58PM 33.6594 -84.9247 249° West 294 338 17,200 2,220 Climbing Atlanta Center
02:59PM 33.6275 -85.0317 250° West 322 371 19,600 2,340 Climbing Atlanta Center
03:01PM 33.5544 -85.2653 249° West 370 426 24,300 2,160 Climbing Atlanta Center
03:02PM 33.5178 -85.3844 250° West 381 438 26,200 1,920 Climbing Atlanta Center
03:03PM 33.4786 -85.5083 249° West 397 457 28,200 1,500 Climbing Atlanta Center
03:04PM 33.4394 -85.6344 250° West 408 470 29,300 1,320 Climbing Atlanta Center
03:05PM 33.3939 -85.7731 249° West 408 470 30,900 1,320 Climbing Atlanta Center
03:06PM 33.3567 -85.8892 249° West 402 463 32,000 1,080 Climbing Atlanta Center
03:07PM 33.3128 -86.0275 249° West 422 486 33,100 1,500 Climbing Atlanta Center
03:08PM 33.2731 -86.1631 251° West 435 501 35,100 1,500 Climbing Atlanta Center
03:09PM 33.2558 -86.2969 261° West 424 488 36,100 780 Climbing Atlanta Center
03:10PM 33.2408 -86.4381 263° West 429 494 36,700 900 Climbing Atlanta Center
03:11PM 33.2131 -86.5714 256° West 430 495 37,900 600 Climbing Atlanta Center
03:12PM 33.1725 -86.7092 251° West 425 489 38,000  Climbing Atlanta Center
03:13PM 33.1297 -86.8467 250° West 433 498 38,000  Level Atlanta Center
03:14PM 33.0933 -86.9769 252° West 439 505 38,000  Level Atlanta Center
03:15PM 33.0461 -87.1142 248° West 439 505 38,000  Level Atlanta Center
03:16PM 33.0072 -87.2492 251° West 439 505 38,000  Level Atlanta Center
03:17PM 32.9661 -87.3811 250° West 433 498 38,000  Level Atlanta Center
03:18PM 32.9272 -87.5058 250° West 424 488 38,000  Level Memphis Center
03:19PM 32.8861 -87.6369 250° West 423 487 38,000  Level Memphis Center
03:20PM 32.8444 -87.7669 249° West 423 487 38,000  Level Memphis Center
03:21PM 32.8031 -87.9031 250° West 422 486 38,000  Level Memphis Center
03:22PM 32.7628 -88.0303 249° West 419 482 38,000  Level Memphis Center
03:23PM 32.7222 -88.1597 250° West 419 482 38,000  Level Memphis Center
03:24PM 32.6825 -88.2889 250° West 419 482 38,000  Level Memphis Center
03:25PM 32.6325 -88.4408 249° West 419 482 38,000  Level Memphis Center
03:26PM 32.5928 -88.5686 250° West 418 481 38,000  Level Memphis Center
03:27PM 32.5525 -88.6953 249° West 418 481 38,000  Level Memphis Center
03:29PM 32.5108 -88.8239 249° West 417 480 38,000  Level Memphis Center
03:30PM 32.4683 -88.9578 249° West 427 491 38,000  Level Memphis Center
03:31PM 32.4244 -89.0914 249° West 432 497 38,000  Level Memphis Center
03:32PM 32.3708 -89.2542 249° West 439 505 38,000  Level Memphis Center
03:33PM 32.3269 -89.3903 249° West 439 505 38,000  Level Memphis Center
03:34PM 32.2814 -89.5275 249° West 444 511 38,000  Level Memphis Center
03:35PM 32.2364 -89.6644 249° West 446 513 38,000  Level Memphis Center
03:36PM 32.1906 -89.8017 248° West 446 513 38,000  Level Memphis Center
03:37PM 32.1458 -89.9389 249° West 447 514 38,000  Level Memphis Center
03:38PM 32.0908 -90.1008 248° West 447 514 38,000  Level Memphis Center
03:39PM 32.0458 -90.2356 249° West 447 514 38,000  Level Memphis Center
03:40PM 31.9997 -90.3711 248° West 447 514 38,000  Level Memphis Center
03:41PM 31.9547 -90.5033 248° West 442 509 38,000  Level Memphis Center
03:42PM 31.9103 -90.6358 248° West 440 506 38,000  Level Memphis Center
03:43PM 31.8561 -90.7942 248° West 439 505 38,000  Level Memphis Center
03:44PM 31.8400 -90.8406 248° West 439 505 38,000  Level Houston Center
03:45PM 31.7908 -90.9839 248° West 438 504 38,000  Level Houston Center
03:46PM 31.7400 -91.1319 248° West 438 504 38,000  Level Houston Center
03:47PM 31.6947 -91.2642 248° West 438 504 38,000 -60 Level Houston Center
03:48PM 31.6478 -91.3942 247° West 437 503 37,900 -1,020 Descending Houston Center
03:49PM 31.6025 -91.5239 248° West 434 499 36,000 -960 Descending Houston Center
03:50PM 31.5472 -91.6819 248° West 435 501 36,000  Level Houston Center
03:51PM 31.4972 -91.8128 246° West 437 503 36,000  Level Houston Center
03:52PM 31.4486 -91.9436 246° West 437 503 36,000  Level Houston Center
03:53PM 31.3986 -92.0806 247° West 438 504 36,000  Level Houston Center
03:54PM 31.3497 -92.2094 246° West 437 503 36,000  Level Houston Center
03:55PM 31.3011 -92.3375 246° West 436 502 36,000  Level Houston Center
03:56PM 31.2547 -92.4703 248° West 452 520 36,000  Level Houston Center
03:57PM 31.1961 -92.6236 246° West 436 502 36,000  Level Houston Center
03:58PM 31.1469 -92.7517 246° West 436 502 36,000  Level Houston Center
03:59PM 31.0986 -92.8800 246° West 435 501 36,000  Level Houston Center
04:00PM 31.0481 -93.0075 245° Southwest 433 498 36,000  Level Houston Center
04:01PM 30.9992 -93.1361 246° West 434 499 36,000  Level Houston Center
04:02PM 30.9397 -93.2894 246° West 434 499 36,000  Level Houston Center
04:03PM 30.8911 -93.4181 246° West 435 501 36,000  Level Houston Center
04:04PM 30.8411 -93.5453 245° Southwest 435 501 36,000  Level Houston Center
04:05PM 30.7917 -93.6739 246° West 437 503 36,000  Level Houston Center
04:06PM 30.7417 -93.8025 246° West 438 504 36,000  Level Houston Center
04:07PM 30.6808 -93.9575 246° West 440 506 36,000  Level Houston Center
04:08PM 30.6297 -94.0869 245° Southwest 441 507 36,000  Level Houston Center
04:09PM 30.5786 -94.2175 246° West 442 509 36,000  Level Houston Center
04:10PM 30.5269 -94.3461 245° Southwest 443 510 36,000  Level Houston Center
04:11PM 30.4750 -94.4750 245° Southwest 443 510 36,000  Level Houston Center
04:13PM 30.4128 -94.6308 245° Southwest 443 510 36,000  Level Houston Center
04:14PM 30.3608 -94.7592 245° Southwest 443 510 36,000  Level Houston Center
04:15PM 30.3097 -94.8878 245° Southwest 443 510 36,000  Level Houston Center
04:16PM 30.2583 -95.0158 245° Southwest 442 509 36,000  Level Houston Center
04:17PM 30.2072 -95.1428 245° Southwest 442 509 36,000  Level Houston Center
04:18PM 30.1461 -95.2931 245° Southwest 438 504 36,000  Level Houston Center
04:19PM 30.0944 -95.4183 245° Southwest 437 503 36,000  Level Houston Center
04:20PM 30.0433 -95.5439 245° Southwest 436 502 36,000  Level Houston Center
04:21PM 29.9925 -95.6686 245° Southwest 436 502 36,000  Level Houston Center
04:22PM 29.9411 -95.7922 244° Southwest 435 501 36,000  Level Houston Center
04:23PM 29.8792 -95.9439 245° Southwest 435 501 36,000  Level Houston Center
04:24PM 29.8706 -96.0900 266° West 433 498 36,000  Level Houston Center
04:25PM 29.8725 -96.2281 271° West 433 498 36,000  Level Houston Center
04:26PM 29.8764 -96.3664 272° West 434 499 36,000  Level Houston Center
04:27PM 29.8792 -96.5056 271° West 434 499 36,000 -300 Level Houston Center
04:28PM 29.8819 -96.6439 271° West 435 501 35,400 -2,040 Descending Houston Center
04:29PM 29.8842 -96.8089 271° West 434 499 31,800 -2,880 Descending Houston Center
04:30PM 29.8864 -96.9453 271° West 434 499 29,400 -2,340 Descending Houston Center
04:31PM 29.8889 -97.0781 271° West 422 486 27,000 -2,280 Descending Houston Center
04:32PM 29.8906 -97.2075 271° West 411 473 24,700 -2,580 Descending Houston Center
04:33PM 29.8919 -97.3353 271° West 403 464 21,700 -3,300 Descending Houston Center
04:34PM 29.8939 -97.4928 271° West 408 470 18,000 -2,940 Descending Houston Center
04:35PM 29.8958 -97.6258 271° West 405 466 15,700 -2,280 Descending Houston Center
04:36PM 29.8944 -97.6644 268° West 400 460 15,000 -2,160 Descending Houston Center
04:36PM 29.8964 -97.7564 271° West 385 443 13,500 -1,980 Descending Houston Center
04:37PM 29.8967 -97.7750 271° West 375 432 13,200 -540 Descending Houston Center
04:37PM 29.8964 -97.8675 270° West 350 403 13,000 -420 Descending Houston Center
04:38PM 29.8881 -97.8822 237° Southwest 324 373 12,800 -1,560 Descending Houston Center
04:39PM 29.8500 -97.9667 243° Southwest 292 336 11,200 -1,620 Descending Houston Center
04:40PM 29.8117 -98.0486 242° Southwest 289 333 9,600 -1,560 Descending Houston Center
04:40PM 29.7794 -98.1219 243° Southwest 283 326 8,200 -1,500 Descending Houston Center
04:42PM 29.7447 -98.2003 243° Southwest 257 296 6,700 -1,080 Descending Houston Center
04:43PM 29.7142 -98.2661 242° Southwest 234 269 6,000 -1,020 Descending Houston Center
04:44PM 29.6778 -98.3172 231° Southwest 197 227 4,700 -1,140 Descending Houston Center
04:45PM 29.6367 -98.3586 221° Southwest 197 227 3,700 -1,260 Descending Houston Center
04:46PM 29.5944 -98.4000 220° Southwest 194 223 2,200 -1,140 Descending Houston Center
04:47PM 29.5597 -98.4331 220° Southwest 138 159 1,400 -720 Descending Houston Center
04:48PM 29.5294 -98.4642 222° Southwest 142 163 700 -660 Descending Houston Center
04:50PM 29.5333 -98.4667 16° North  Level FlightAware Approximate
04:57PM 29.5340 -98.4691 16° North  Level Estimated